Time;durP1;ratioP1;P1;durP2;ratioP2;P2;SDS_P1;SDS_P2;PMS_P1;PMS_P2;Temp;Humidity;BMP_temperature;BMP_pressure;BME280_temperature;BME280_humidity;BME280_pressure;Samples;Min_cycle;Max_cycle;Signal;HPM_P1;HPM_P2
2023/10/20 00:00:53;;;;;;;1.75;1.45;;;;;;;2.41;83.49;101078.34;5052314;28;20739;-74
2023/10/20 00:03:18;;;;;;;2.22;1.70;;;;;;;2.47;83.72;101075.94;5034043;28;20094;-73
2023/10/20 00:05:43;;;;;;;2.95;1.40;;;;;;;2.52;83.37;101083.53;5068401;28;20120;-74
2023/10/20 00:08:09;;;;;;;2.65;1.52;;;;;;;2.43;84.26;101079.88;5056439;28;20039;-74
2023/10/20 00:10:39;;;;;;;3.13;1.70;;;;;;;2.16;84.66;101048.69;5052814;28;20081;-74
2023/10/20 00:13:05;;;;;;;2.42;1.48;;;;;;;2.35;83.80;101071.75;5052642;28;20028;-73
2023/10/20 00:15:30;;;;;;;2.67;1.77;;;;;;;2.34;84.38;101080.69;5051342;28;20025;-74
2023/10/20 00:17:56;;;;;;;4.05;2.00;;;;;;;2.19;85.75;101071.47;5051354;28;20535;-74
2023/10/20 00:20:22;;;;;;;2.08;1.50;;;;;;;2.41;85.27;101071.19;5067421;28;20025;-74
2023/10/20 00:22:47;;;;;;;3.22;1.90;;;;;;;2.22;86.41;101074.69;5052316;28;20032;-73
2023/10/20 00:25:12;;;;;;;2.83;1.60;;;;;;;1.99;88.05;101073.28;5052040;28;20396;-74
2023/10/20 00:27:42;;;;;;;2.58;1.80;;;;;;;2.16;87.64;101066.44;5034005;28;20033;-74
2023/10/20 00:30:09;;;;;;;3.83;1.67;;;;;;;1.99;87.88;101052.88;5049411;28;20029;-73
2023/10/20 00:32:35;;;;;;;2.33;1.70;;;;;;;2.31;87.37;101079.16;5050429;28;20025;-74
2023/10/20 00:35:04;;;;;;;3.90;1.63;;;;;;;2.12;87.59;101047.31;5050523;28;20447;-74
2023/10/20 00:37:31;;;;;;;3.20;1.95;;;;;;;2.22;87.68;101092.41;5051117;28;20033;-74
2023/10/20 00:39:57;;;;;;;2.17;1.48;;;;;;;2.22;87.56;101045.50;5051789;28;20091;-74
2023/10/20 00:42:22;;;;;;;1.92;1.40;;;;;;;2.15;87.78;101041.69;5034379;28;20487;-74
2023/10/20 00:44:47;;;;;;;2.47;1.70;;;;;;;2.50;87.54;101062.41;5033705;28;20039;-74
2023/10/20 00:47:13;;;;;;;2.83;1.77;;;;;;;2.50;86.76;101065.06;5049852;28;20438;-74
2023/10/20 00:49:39;;;;;;;2.50;1.77;;;;;;;2.46;87.20;101071.63;5051070;28;20326;-74
2023/10/20 00:52:06;;;;;;;3.72;1.80;;;;;;;2.39;88.10;101064.38;5055341;28;20472;-74
2023/10/20 00:54:32;;;;;;;2.67;1.90;;;;;;;2.36;88.04;101052.19;5034694;28;20033;-74
2023/10/20 00:56:57;;;;;;;3.70;1.95;;;;;;;2.48;87.41;101066.16;5050689;28;20066;-74
2023/10/20 00:59:23;;;;;;;3.65;2.08;;;;;;;2.13;87.99;101000.34;5050661;28;20435;-74
2023/10/20 01:01:48;;;;;;;2.90;2.10;;;;;;;2.34;88.19;101068.25;5050490;28;20037;-74
2023/10/20 01:04:14;;;;;;;3.47;1.92;;;;;;;2.38;88.34;101066.16;5050261;28;20040;-74
2023/10/20 01:06:40;;;;;;;3.25;1.90;;;;;;;2.42;88.12;101050.78;5049880;28;20029;-74
2023/10/20 01:09:09;;;;;;;3.85;1.95;;;;;;;2.38;87.70;101055.53;5032983;28;20419;-74
2023/10/20 01:11:35;;;;;;;3.90;2.25;;;;;;;2.43;88.32;101061.28;5033744;28;20146;-74
2023/10/20 01:14:01;;;;;;;4.97;1.90;;;;;;;2.41;88.51;101068.53;5049237;28;20120;-74
2023/10/20 01:16:26;;;;;;;3.22;2.00;;;;;;;2.47;89.12;101059.19;5033029;28;20033;-74
2023/10/20 01:18:53;;;;;;;3.30;2.05;;;;;;;2.38;89.91;101062.66;5049454;28;20165;-74
2023/10/20 01:21:18;;;;;;;4.18;2.72;;;;;;;2.51;88.90;101066.72;5049467;28;20271;-74
2023/10/20 01:23:44;;;;;;;2.92;1.90;;;;;;;2.49;89.38;101054.59;5032657;28;20131;-73
2023/10/20 01:26:09;;;;;;;4.47;1.92;;;;;;;2.62;87.75;101057.78;5049063;28;20029;-74
2023/10/20 01:28:35;;;;;;;3.72;2.00;;;;;;;2.51;88.77;101053.44;5051501;28;20033;-74
2023/10/20 01:31:00;;;;;;;4.43;2.13;;;;;;;2.52;87.40;101049.81;5068079;28;20491;-74
2023/10/20 01:33:26;;;;;;;3.20;1.90;;;;;;;2.36;90.08;101052.19;5038007;28;20097;-74
2023/10/20 01:35:51;;;;;;;2.50;2.05;;;;;;;2.38;90.05;101044.09;5052623;28;20055;-73
2023/10/20 01:38:17;;;;;;;3.05;2.13;;;;;;;2.36;90.47;101044.22;5050404;28;20064;-74
2023/10/20 01:40:44;;;;;;;2.97;2.00;;;;;;;2.30;90.33;101036.81;5051159;28;20116;-74
2023/10/20 01:43:10;;;;;;;3.47;2.17;;;;;;;2.16;91.50;101038.09;5050749;28;20036;-74
2023/10/20 01:45:35;;;;;;;2.92;2.10;;;;;;;2.42;90.67;101037.50;5052043;28;20103;-74
2023/10/20 01:48:01;;;;;;;3.42;2.00;;;;;;;2.41;89.07;101022.56;5052359;28;20033;-74
2023/10/20 01:50:26;;;;;;;3.60;2.20;;;;;;;2.36;89.95;101046.91;5036245;28;20021;-74
2023/10/20 01:52:52;;;;;;;2.88;2.13;;;;;;;2.44;89.83;101032.91;5049237;28;20033;-74
2023/10/20 01:55:17;;;;;;;3.85;2.55;;;;;;;2.52;89.37;101030.41;5049033;28;20025;-74
2023/10/20 01:57:43;;;;;;;3.78;2.40;;;;;;;2.32;90.58;101021.59;5036447;28;20483;-74
2023/10/20 02:00:13;;;;;;;3.10;2.28;;;;;;;2.24;91.08;101022.28;5054290;28;20103;-74
2023/10/20 02:02:39;;;;;;;3.58;2.33;;;;;;;2.15;92.25;101023.09;5037021;28;20044;-74
2023/10/20 02:05:08;;;;;;;3.67;2.30;;;;;;;2.21;93.08;101025.22;5053505;28;20108;-74
2023/10/20 02:07:34;;;;;;;4.35;2.88;;;;;;;2.21;91.90;100990.69;5053841;28;20391;-74
2023/10/20 02:09:59;;;;;;;3.80;2.38;;;;;;;2.22;92.65;101008.31;5053270;28;20044;-74
2023/10/20 02:12:25;;;;;;;4.72;2.30;;;;;;;2.28;92.78;101002.44;5052603;28;20067;-74
2023/10/20 02:14:50;;;;;;;3.72;2.50;;;;;;;2.32;92.81;101001.19;5053397;28;20029;-74
2023/10/20 02:17:15;;;;;;;3.13;2.33;;;;;;;2.30;91.50;101005.78;5036701;28;20033;-74
2023/10/20 02:19:41;;;;;;;3.25;2.30;;;;;;;2.37;90.53;100999.94;5054985;28;20474;-73
2023/10/20 02:22:06;;;;;;;4.70;2.42;;;;;;;2.27;92.04;100997.28;5053188;28;20029;-74
2023/10/20 02:24:31;;;;;;;4.25;2.30;;;;;;;2.32;92.20;100993.22;5054637;28;20025;-74
2023/10/20 02:26:57;;;;;;;3.35;2.08;;;;;;;2.37;91.37;100999.94;5070031;28;20071;-74
2023/10/20 02:29:23;;;;;;;4.30;2.25;;;;;;;2.39;90.74;100997.97;5037086;28;20122;-74
2023/10/20 02:31:48;;;;;;;3.22;2.22;;;;;;;2.46;90.01;100996.44;5053706;28;20399;-74
2023/10/20 02:34:13;;;;;;;3.20;2.38;;;;;;;2.23;92.38;100983.44;5052995;28;20391;-73
2023/10/20 02:36:39;;;;;;;3.45;2.20;;;;;;;2.23;92.19;100990.56;5053072;28;20041;-74
2023/10/20 02:39:04;;;;;;;3.38;2.15;;;;;;;2.11;92.44;100964.16;5052986;28;20044;-74
2023/10/20 02:41:30;;;;;;;3.08;2.10;;;;;;;2.24;92.83;100979.81;5036309;28;20067;-74
2023/10/20 02:43:55;;;;;;;3.60;2.17;;;;;;;2.28;92.73;100975.88;5036185;28;20511;-74
2023/10/20 02:46:21;;;;;;;4.32;2.13;;;;;;;2.19;93.92;100982.06;5036105;28;20021;-74
2023/10/20 02:48:46;;;;;;;2.80;2.10;;;;;;;2.21;93.75;100980.06;5053886;28;20155;-73
2023/10/20 02:51:13;;;;;;;4.22;2.20;;;;;;;2.27;93.88;100984.84;5054021;28;20028;-74
2023/10/20 02:53:41;;;;;;;6.85;2.67;;;;;;;2.17;94.76;100972.56;5053988;28;20037;-73
2023/10/20 02:56:14;;;;;;;3.83;2.05;;;;;;;2.24;93.46;100958.56;5052891;28;20373;-74
2023/10/20 02:58:43;;;;;;;4.28;2.00;;;;;;;2.27;93.52;100952.97;5052192;28;20399;-74
2023/10/20 03:01:09;;;;;;;3.13;2.30;;;;;;;2.45;92.81;100960.22;5069039;28;20114;-74
2023/10/20 03:03:35;;;;;;;3.92;2.22;;;;;;;2.47;92.47;100958.25;5052580;28;20055;-74
2023/10/20 03:06:02;;;;;;;2.88;1.98;;;;;;;2.22;92.78;100954.38;5052247;28;20029;-74
2023/10/20 03:08:29;;;;;;;3.85;2.13;;;;;;;2.13;93.32;100937.47;5053868;28;20029;-74
2023/10/20 03:10:54;;;;;;;2.63;1.90;;;;;;;2.19;93.88;100963.47;5068909;28;20163;-74
2023/10/20 03:13:20;;;;;;;3.60;2.47;;;;;;;2.14;94.67;100964.88;5051402;28;20735;-74
2023/10/20 03:15:45;;;;;;;3.78;2.22;;;;;;;2.20;95.10;100962.47;5034965;28;20037;-74
2023/10/20 03:18:13;;;;;;;4.15;2.10;;;;;;;2.18;94.69;100947.66;5052629;28;20423;-74
2023/10/20 03:20:38;;;;;;;4.15;2.38;;;;;;;2.40;94.29;100958.00;5053333;28;20047;-74
2023/10/20 03:23:05;;;;;;;4.13;2.25;;;;;;;2.41;93.20;100942.88;5069203;28;20037;-74
2023/10/20 03:25:33;;;;;;;3.65;2.30;;;;;;;2.50;91.98;100937.56;5033987;28;20090;-73
2023/10/20 03:27:58;;;;;;;3.03;2.00;;;;;;;2.74;90.96;100944.19;5051467;28;20037;-74
2023/10/20 03:30:24;;;;;;;2.85;1.85;;;;;;;2.51;92.01;100938.38;5051942;28;20021;-74
2023/10/20 03:32:51;;;;;;;5.93;2.10;;;;;;;2.51;92.24;100943.69;5050266;28;20048;-74
2023/10/20 03:35:17;;;;;;;3.00;2.08;;;;;;;2.52;92.86;100938.25;5050526;28;20078;-74
2023/10/20 03:37:43;;;;;;;3.72;2.17;;;;;;;2.57;92.22;100943.13;5033601;28;20029;-75
2023/10/20 03:40:17;;;;;;;3.55;2.00;;;;;;;2.40;94.63;100947.38;5050989;28;20099;-74
2023/10/20 03:42:43;;;;;;;2.63;1.98;;;;;;;2.45;94.24;100938.97;5051545;28;20476;-74
2023/10/20 03:45:10;;;;;;;4.07;2.17;;;;;;;2.56;93.97;100952.09;5068083;28;20060;-74
2023/10/20 03:47:39;;;;;;;3.38;1.90;;;;;;;2.47;94.12;100948.47;5053133;28;20017;-75
2023/10/20 03:50:17;;;;;;;2.72;1.80;;;;;;;2.53;94.29;100944.41;5036770;28;20029;-76
2023/10/20 03:52:46;;;;;;;3.75;2.40;;;;;;;2.49;94.93;100943.03;5053819;28;20443;-74
2023/10/20 03:55:16;;;;;;;2.95;1.88;;;;;;;2.50;94.81;100928.75;5051630;28;20586;-74
2023/10/20 03:57:43;;;;;;;4.07;2.40;;;;;;;2.39;97.00;100942.22;5051581;28;20479;-74
2023/10/20 04:00:29;;;;;;;4.05;2.42;;;;;;;2.37;98.12;100929.06;5051249;28;20037;-74
2023/10/20 04:02:58;;;;;;;5.28;2.45;;;;;;;2.41;98.09;100930.44;5036864;28;20032;-74
2023/10/20 04:05:24;;;;;;;3.78;2.17;;;;;;;2.54;98.14;100933.63;5034734;28;20037;-74
2023/10/20 04:07:50;;;;;;;2.92;2.25;;;;;;;2.45;98.59;100939.81;5051570;28;20376;-74
2023/10/20 04:10:18;;;;;;;4.97;2.22;;;;;;;2.49;98.76;100933.22;5051559;28;20032;-76
2023/10/20 04:12:44;;;;;;;3.80;2.22;;;;;;;2.37;99.64;100920.25;5068207;28;20119;-75
2023/10/20 04:15:14;;;;;;;3.72;2.17;;;;;;;2.63;99.15;100939.06;5052635;28;20053;-76
2023/10/20 04:17:40;;;;;;;4.55;2.30;;;;;;;2.71;99.30;100931.19;5068321;28;20044;-75
2023/10/20 04:20:07;;;;;;;2.53;1.90;;;;;;;2.71;98.53;100924.06;5067567;28;20484;-75
2023/10/20 04:22:33;;;;;;;3.17;1.98;;;;;;;2.69;99.10;100934.03;5051303;28;20075;-75
2023/10/20 04:24:58;;;;;;;3.58;2.20;;;;;;;2.68;100.00;100931.50;5052047;28;20029;-75
2023/10/20 04:52:05;;;;;;;2.28;1.60;;;;;;;3.26;100.00;100920.63;5062461;28;20082;-74
2023/10/20 05:10:32;;;;;;;2.97;2.00;;;;;;;3.53;100.00;100909.09;5072842;28;20105;-74
2023/10/20 05:12:58;;;;;;;3.67;1.90;;;;;;;3.53;100.00;100912.59;5086870;28;20025;-75
2023/10/20 05:15:23;;;;;;;2.70;1.75;;;;;;;3.76;100.00;100918.31;5068807;28;20028;-75
2023/10/20 05:17:52;;;;;;;2.55;1.38;;;;;;;3.61;100.00;100884.38;5069119;28;20059;-75
2023/10/20 05:20:21;;;;;;;2.92;1.50;;;;;;;3.90;100.00;100913.44;5069308;28;20047;-75
2023/10/20 05:22:47;;;;;;;2.78;1.40;;;;;;;3.94;100.00;100912.13;5052863;28;20028;-75
2023/10/20 05:25:13;;;;;;;2.65;1.65;;;;;;;3.90;100.00;100910.78;5070327;28;20035;-74
2023/10/20 05:27:39;;;;;;;2.13;1.27;;;;;;;3.98;100.00;100898.38;5087380;28;20029;-74
2023/10/20 05:30:05;;;;;;;1.90;1.40;;;;;;;4.03;100.00;100919.22;5071027;28;20036;-75
2023/10/20 05:32:31;;;;;;;1.80;1.38;;;;;;;4.33;100.00;100917.09;5070813;28;20032;-75
2023/10/20 05:34:59;;;;;;;3.83;1.50;;;;;;;3.90;100.00;100908.94;5071354;28;20036;-75
2023/10/20 05:37:24;;;;;;;4.00;3.15;;;;;;;3.97;100.00;100917.16;5069630;28;20123;-75
2023/10/20 05:39:50;;;;;;;1.50;1.13;;;;;;;3.93;100.00;100926.44;5086984;28;20079;-75
2023/10/20 05:42:16;;;;;;;2.10;1.40;;;;;;;4.09;100.00;100934.56;5053055;28;20037;-75
2023/10/20 05:44:48;;;;;;;2.65;1.50;;;;;;;4.01;100.00;100902.56;5069760;28;20033;-75
2023/10/20 05:47:14;;;;;;;1.98;1.40;;;;;;;4.15;100.00;100947.28;5053466;28;20028;-75
2023/10/20 05:49:39;;;;;;;2.03;1.30;;;;;;;4.15;100.00;100935.78;5069820;28;20029;-75
2023/10/20 05:52:05;;;;;;;3.55;1.35;;;;;;;4.31;98.78;100929.75;5070632;28;20032;-76
2023/10/20 05:54:31;;;;;;;3.22;1.30;;;;;;;4.25;99.86;100949.84;5069689;28;20036;-75
2023/10/20 05:56:57;;;;;;;2.95;1.20;;;;;;;4.35;98.87;100949.78;5053168;28;20056;-74
2023/10/20 05:59:22;;;;;;;1.60;1.13;;;;;;;4.39;98.60;100937.81;5069505;28;20021;-75
2023/10/20 06:01:47;;;;;;;1.90;1.33;;;;;;;4.38;99.04;100915.66;5053107;28;20464;-75
2023/10/20 06:04:13;;;;;;;2.47;1.30;;;;;;;4.35;99.89;100925.78;5069447;28;20032;-75
2023/10/20 06:06:39;;;;;;;1.52;1.20;;;;;;;4.55;99.07;100921.94;5071168;28;20032;-75
2023/10/20 06:09:06;;;;;;;3.05;1.20;;;;;;;4.37;99.21;100891.81;5071219;28;20032;-75
2023/10/20 06:11:35;;;;;;;2.25;0.82;;;;;;;4.44;99.99;100935.53;5071299;28;20021;-76
2023/10/20 06:14:00;;;;;;;1.98;1.30;;;;;;;4.62;99.15;100925.63;5053504;28;20132;-74
2023/10/20 06:16:26;;;;;;;1.75;1.30;;;;;;;4.66;98.49;100928.81;5086237;28;20546;-74
2023/10/20 06:18:52;;;;;;;2.85;1.17;;;;;;;4.71;97.73;100922.03;5086664;28;20117;-74
2023/10/20 06:21:17;;;;;;;4.20;1.33;;;;;;;4.70;98.01;100925.69;5086148;28;20025;-74
2023/10/20 06:23:43;;;;;;;1.63;1.20;;;;;;;4.75;98.50;100911.06;5086224;28;20025;-74
2023/10/20 06:26:09;;;;;;;2.80;1.10;;;;;;;4.71;98.30;100914.03;5087501;28;20388;-74
2023/10/20 06:28:35;;;;;;;1.95;1.48;;;;;;;4.98;97.27;100906.00;5071437;28;20036;-74
2023/10/20 06:31:01;;;;;;;1.25;0.90;;;;;;;4.63;97.90;100891.81;5069406;28;20097;-74
2023/10/20 06:33:33;;;;;;;1.83;1.00;;;;;;;4.47;98.80;100881.91;5087119;28;20043;-74
2023/10/20 06:36:10;;;;;;;1.92;1.05;;;;;;;4.81;97.51;100892.59;5070483;28;20170;-73
2023/10/20 06:41:03;;;;;;;2.05;0.95;;;;;;;4.46;97.98;100864.25;5073546;28;20108;-74
2023/10/20 06:43:29;;;;;;;2.03;1.08;;;;;;;4.91;96.54;100893.31;5076748;28;20135;-73
2023/10/20 06:46:01;;;;;;;2.15;1.00;;;;;;;4.82;96.85;100891.59;5075247;28;20054;-74
2023/10/20 06:48:28;;;;;;;2.00;1.00;;;;;;;5.03;95.28;100904.50;5074246;28;20033;-76
2023/10/20 06:50:53;;;;;;;1.80;0.95;;;;;;;4.90;96.29;100904.09;5090369;28;20039;-73
2023/10/20 06:53:19;;;;;;;1.85;1.00;;;;;;;4.84;95.78;100891.44;5075452;28;20506;-73
2023/10/20 06:55:51;;;;;;;1.83;1.00;;;;;;;4.92;95.60;100904.78;5090101;28;20024;-73
2023/10/20 06:58:19;;;;;;;2.33;1.05;;;;;;;5.01;95.17;100887.00;5073862;28;20507;-73
2023/10/20 07:00:46;;;;;;;2.35;1.08;;;;;;;5.12;94.26;100898.22;5056803;28;20454;-73
2023/10/20 07:03:13;;;;;;;3.60;1.27;;;;;;;5.25;93.75;100894.25;5091770;28;20028;-74
2023/10/20 07:05:42;;;;;;;1.88;0.93;;;;;;;5.17;93.91;100884.41;5075488;28;20107;-74
2023/10/20 07:08:08;;;;;;;3.58;0.85;;;;;;;5.06;94.90;100882.84;5073178;28;20041;-74
2023/10/20 07:10:37;;;;;;;2.00;0.80;;;;;;;5.45;93.17;100900.16;5072784;28;20052;-74
2023/10/20 07:13:07;;;;;;;1.80;0.80;;;;;;;5.31;92.83;100874.94;5072981;28;20028;-74
2023/10/20 07:15:33;;;;;;;2.47;0.80;;;;;;;5.40;93.01;100900.66;5090026;28;20029;-74
2023/10/20 07:17:59;;;;;;;1.70;0.90;;;;;;;5.24;92.92;100858.75;5074083;28;20027;-74
2023/10/20 07:20:25;;;;;;;3.10;0.95;;;;;;;5.39;92.41;100897.13;5055356;28;20024;-74
2023/10/20 07:22:51;;;;;;;3.38;0.85;;;;;;;5.31;92.85;100885.59;5055442;28;20048;-74
2023/10/20 07:25:17;;;;;;;2.60;1.13;;;;;;;5.46;92.34;100891.97;5055300;28;20033;-74
2023/10/20 07:27:43;;;;;;;2.45;1.05;;;;;;;5.32;93.51;100888.09;5088962;28;20029;-74
2023/10/20 07:30:10;;;;;;;2.50;0.85;;;;;;;5.55;92.34;100892.81;5072222;28;20056;-74
2023/10/20 07:32:36;;;;;;;1.60;0.82;;;;;;;5.36;92.71;100875.25;5039726;28;20028;-74
2023/10/20 07:35:03;;;;;;;2.03;0.82;;;;;;;5.50;91.83;100882.66;5073007;28;20035;-73
2023/10/20 07:37:28;;;;;;;2.03;0.93;;;;;;;5.47;92.45;100890.97;5071799;28;20199;-74
2023/10/20 07:39:54;;;;;;;1.30;0.63;;;;;;;5.36;92.47;100904.63;5088687;28;20115;-74
2023/10/20 07:42:19;;;;;;;1.42;0.80;;;;;;;5.45;92.37;100876.97;5072610;28;20505;-74
2023/10/20 07:44:46;;;;;;;1.80;0.80;;;;;;;5.24;92.36;100852.56;5089666;28;20040;-74
2023/10/20 07:47:11;;;;;;;0.95;0.75;;;;;;;5.36;92.19;100884.13;5088754;28;20036;-74
2023/10/20 07:49:37;;;;;;;4.72;2.53;;;;;;;5.45;92.57;100873.47;5071845;28;20028;-74
2023/10/20 07:52:03;;;;;;;2.97;1.27;;;;;;;5.48;92.13;100887.31;5071747;28;20471;-74
2023/10/20 07:54:29;;;;;;;4.95;1.20;;;;;;;5.63;91.68;100880.34;5055187;28;20024;-74
2023/10/20 07:56:56;;;;;;;2.97;1.23;;;;;;;5.78;90.62;100874.34;5072787;28;20048;-74
2023/10/20 07:59:21;;;;;;;3.63;1.02;;;;;;;5.29;92.42;100876.91;5073642;28;20050;-74
2023/10/20 08:01:47;;;;;;;2.75;1.67;;;;;;;5.46;93.00;100875.13;5088875;28;20487;-74
2023/10/20 08:04:12;;;;;;;3.33;1.13;;;;;;;5.50;92.23;100882.66;5077929;28;20060;-73
2023/10/20 08:06:38;;;;;;;2.35;1.17;;;;;;;5.91;90.37;100873.84;5078561;28;20479;-73
2023/10/20 08:09:04;;;;;;;1.77;0.93;;;;;;;5.41;91.65;100849.75;5076730;28;20053;-74
2023/10/20 08:11:29;;;;;;;2.75;0.95;;;;;;;5.71;91.02;100860.81;5077808;28;20514;-74
2023/10/20 08:13:55;;;;;;;2.25;1.00;;;;;;;5.94;90.22;100847.66;5092094;28;20057;-74
2023/10/20 08:16:21;;;;;;;2.53;0.90;;;;;;;5.74;90.29;100854.31;5072714;28;20048;-74
2023/10/20 08:18:47;;;;;;;2.03;1.00;;;;;;;5.73;90.03;100853.47;5054989;28;20024;-74
2023/10/20 08:21:14;;;;;;;2.20;1.05;;;;;;;6.15;89.06;100848.97;5072815;28;20376;-74
2023/10/20 08:23:39;;;;;;;2.85;1.15;;;;;;;5.87;88.83;100857.31;5071832;28;20132;-74
2023/10/20 08:26:05;;;;;;;2.88;1.00;;;;;;;5.71;89.53;100826.09;5054217;28;20495;-74
2023/10/20 08:28:31;;;;;;;2.53;0.90;;;;;;;5.74;89.97;100857.81;5072207;28;20082;-74
2023/10/20 08:31:10;;;;;;;3.28;1.33;;;;;;;6.15;88.33;100852.47;5072133;28;20016;-74
2023/10/20 08:33:36;;;;;;;2.25;0.75;;;;;;;5.94;88.24;100839.66;5070924;28;20054;-73
2023/10/20 08:36:15;;;;;;;1.20;0.80;;;;;;;5.93;88.07;100831.78;5072267;28;20525;-73
2023/10/20 08:38:46;;;;;;;2.20;0.80;;;;;;;6.24;87.26;100846.13;5071841;28;20031;-73
2023/10/20 08:41:13;;;;;;;1.02;0.60;;;;;;;5.97;88.24;100842.00;5087654;28;20399;-74
2023/10/20 08:43:41;;;;;;;2.08;0.85;;;;;;;5.81;88.47;100818.75;5054441;28;20028;-73
2023/10/20 08:46:10;;;;;;;1.08;0.60;;;;;;;6.01;87.61;100870.03;5071177;28;20032;-74
2023/10/20 08:48:46;;;;;;;2.13;0.60;;;;;;;6.29;86.84;100848.28;5087994;28;20036;-73
2023/10/20 08:51:15;;;;;;;1.42;0.60;;;;;;;5.93;88.06;100858.50;5070706;28;20029;-74
2023/10/20 08:53:42;;;;;;;2.28;0.90;;;;;;;5.99;88.27;100853.31;5054743;28;20040;-73
2023/10/20 08:56:09;;;;;;;1.00;0.75;;;;;;;6.02;88.73;100842.28;5072006;28;20490;-74
2023/10/20 08:58:35;;;;;;;0.93;0.50;;;;;;;6.19;88.12;100837.78;5060857;28;20035;-73
2023/10/20 09:01:01;;;;;;;0.93;0.52;;;;;;;6.32;87.67;100853.28;5088816;28;20040;-73
2023/10/20 09:03:37;;;;;;;0.80;0.50;;;;;;;6.16;88.33;100839.94;5089707;28;20035;-74
2023/10/20 09:06:08;;;;;;;2.20;0.65;;;;;;;6.28;87.56;100828.72;5070846;28;20042;-74
2023/10/20 09:08:34;;;;;;;1.67;0.60;;;;;;;6.48;86.69;100831.84;5069655;28;20056;-73
2023/10/20 09:10:59;;;;;;;1.75;0.50;;;;;;;6.82;85.71;100828.91;5073029;28;20021;-73
2023/10/20 09:13:36;;;;;;;1.25;0.50;;;;;;;6.75;85.00;100819.06;5073851;28;20022;-74
2023/10/20 09:16:03;;;;;;;3.13;0.77;;;;;;;6.66;85.68;100818.28;5073482;28;20085;-72
2023/10/20 09:18:31;;;;;;;2.15;0.68;;;;;;;6.91;84.83;100835.03;5071615;28;20082;-73
2023/10/20 09:21:05;;;;;;;1.67;0.82;;;;;;;6.87;84.40;100836.41;5071144;28;20338;-73
2023/10/20 09:23:32;;;;;;;;;;;;;;;6.73;85.26;100829.13;5069241;28;20090;-73
2023/10/20 09:25:58;;;;;;;1.52;0.70;;;;;;;6.68;85.09;100826.94;5069916;28;19919;-74
2023/10/20 09:28:23;;;;;;;1.42;0.60;;;;;;;6.61;85.80;100830.50;5053344;28;20033;-74
2023/10/20 09:30:49;;;;;;;0.90;0.52;;;;;;;6.40;87.25;100818.53;5053486;28;20418;-73
2023/10/20 09:33:15;;;;;;;1.33;0.70;;;;;;;6.38;86.38;100851.78;5036732;28;20025;-74
2023/10/20 09:35:41;;;;;;;1.45;0.60;;;;;;;6.67;85.35;100835.16;5067915;28;20029;-73
2023/10/20 09:38:11;;;;;;;0.52;0.40;;;;;;;6.82;84.64;100858.34;5068335;28;20330;-74
2023/10/20 09:40:39;;;;;;;1.45;0.60;;;;;;;6.81;84.64;100816.53;5069873;28;20032;-74
2023/10/20 09:43:22;;;;;;;4.38;0.70;;;;;;;6.70;85.53;100861.56;5057821;28;20032;-74
2023/10/20 09:45:56;;;;;;;2.05;0.50;;;;;;;6.54;86.71;100815.13;5071949;28;20047;-73
2023/10/20 09:48:23;;;;;;;1.77;0.60;;;;;;;6.87;86.17;100838.25;5068823;28;20032;-74
2023/10/20 09:50:50;;;;;;;1.00;0.55;;;;;;;6.86;85.90;100849.97;5054000;28;20024;-74
2023/10/20 09:53:17;;;;;;;0.70;0.55;;;;;;;6.95;86.17;100843.53;5070133;28;20043;-74
2023/10/20 09:55:45;;;;;;;1.58;0.65;;;;;;;6.88;85.85;100827.34;5070619;28;20405;-74
2023/10/20 09:58:12;;;;;;;1.08;0.60;;;;;;;6.83;85.77;100843.13;5072706;28;20096;-74
2023/10/20 10:00:42;;;;;;;1.20;0.60;;;;;;;6.97;86.14;100839.69;5072509;28;20028;-75
2023/10/20 10:03:08;;;;;;;1.05;0.40;;;;;;;7.05;84.19;100830.78;5072038;28;20536;-73
2023/10/20 10:05:46;;;;;;;2.45;0.70;;;;;;;7.16;83.57;100832.25;5070677;28;20380;-74
2023/10/20 10:08:12;;;;;;;1.20;0.52;;;;;;;7.24;82.73;100789.38;5075718;28;20024;-75
2023/10/20 10:10:38;;;;;;;1.00;0.50;;;;;;;7.28;82.53;100801.38;5057386;28;20036;-74
2023/10/20 10:13:07;;;;;;;2.25;0.70;;;;;;;7.47;81.23;100784.03;5073936;28;20032;-75
2023/10/20 10:15:45;;;;;;;1.27;0.50;;;;;;;7.43;79.86;100793.44;5077190;28;20029;-74
2023/10/20 10:18:13;;;;;;;0.82;0.50;;;;;;;7.46;79.91;100756.41;5081247;28;20081;-73
2023/10/20 10:20:46;;;;;;;1.15;0.60;;;;;;;7.25;79.03;100762.44;5076886;28;20050;-74
2023/10/20 10:23:12;;;;;;;0.77;0.50;;;;;;;7.43;78.42;100796.94;5073243;28;20071;-73
2023/10/20 10:25:39;;;;;;;0.98;0.82;;;;;;;7.82;77.60;100798.63;5057042;28;20029;-74
2023/10/20 10:28:10;;;;;;;11.63;6.07;;;;;;;7.42;77.27;100789.09;5079494;28;20092;-74
2023/10/20 10:30:37;;;;;;;3.22;1.38;;;;;;;7.37;76.98;100781.59;5076403;28;20483;-74
2023/10/20 10:33:04;;;;;;;15.98;8.10;;;;;;;7.35;78.02;100786.31;5075046;28;20115;-75
2023/10/20 10:35:29;;;;;;;2.28;1.02;;;;;;;7.54;76.26;100801.84;5073337;28;20035;-74
2023/10/20 10:37:55;;;;;;;2.15;1.00;;;;;;;7.62;75.96;100805.50;5092064;28;20051;-74
2023/10/20 10:40:22;;;;;;;10.32;4.28;;;;;;;7.72;75.12;100784.66;5091370;28;20039;-75
2023/10/20 10:42:52;;;;;;;18.40;6.70;;;;;;;7.85;74.13;100794.75;5092065;28;20107;-75
2023/10/20 10:45:21;;;;;;;2.67;1.58;;;;;;;7.82;73.89;100800.47;5094011;28;20081;-75
2023/10/20 10:47:49;;;;;;;2.25;1.13;;;;;;;7.98;73.12;100793.13;5093616;28;20090;-75
2023/10/20 10:50:20;;;;;;;1.00;0.60;;;;;;;7.87;72.97;100780.16;5094508;28;20024;-74
2023/10/20 10:52:46;;;;;;;1.25;0.50;;;;;;;7.64;72.42;100788.22;5093265;28;20035;-75
2023/10/20 10:55:13;;;;;;;1.73;0.50;;;;;;;7.79;71.79;100774.88;5094112;28;20031;-74
2023/10/20 10:57:40;;;;;;;2.10;0.88;;;;;;;7.96;72.29;100773.69;5094394;28;20047;-74
2023/10/20 11:00:07;;;;;;;2.40;0.60;;;;;;;7.74;71.91;100774.59;5095918;28;20035;-73
2023/10/20 11:02:32;;;;;;;1.25;0.50;;;;;;;7.57;73.41;100763.19;5098155;28;20039;-74
2023/10/20 11:04:59;;;;;;;1.15;0.65;;;;;;;7.69;73.97;100760.91;5097132;28;20110;-74
2023/10/20 11:07:24;;;;;;;1.15;0.55;;;;;;;7.56;73.60;100771.41;5094144;28;20444;-74
2023/10/20 11:09:51;;;;;;;1.05;0.30;;;;;;;7.43;73.62;100754.09;5093561;28;20487;-74
2023/10/20 11:12:16;;;;;;;1.30;0.40;;;;;;;7.35;73.83;100788.97;5060723;28;20543;-74
2023/10/20 11:14:42;;;;;;;0.70;0.40;;;;;;;7.81;72.97;100750.56;5082140;28;20028;-73
2023/10/20 11:17:07;;;;;;;1.70;0.50;;;;;;;7.85;72.48;100792.91;5093392;28;20513;-73
2023/10/20 11:19:33;;;;;;;0.70;0.40;;;;;;;7.77;72.00;100779.56;5059216;28;20055;-74
2023/10/20 11:21:58;;;;;;;0.38;0.30;;;;;;;8.03;71.12;100781.84;5077236;28;20348;-74
2023/10/20 11:24:35;;;;;;;1.45;0.50;;;;;;;8.15;69.90;100769.66;5093474;28;20050;-74
2023/10/20 11:27:02;;;;;;;1.45;0.60;;;;;;;8.09;69.96;100770.41;5092694;28;20093;-74
2023/10/20 11:29:32;;;;;;;2.35;0.60;;;;;;;7.99;69.59;100767.97;5076198;28;20032;-74
2023/10/20 11:32:05;;;;;;;1.00;0.50;;;;;;;8.42;68.72;100768.22;5093526;28;20512;-74
2023/10/20 11:34:35;;;;;;;0.90;0.40;;;;;;;8.46;66.87;100764.13;5094393;28;20027;-74
2023/10/20 11:37:01;;;;;;;1.17;0.40;;;;;;;8.22;66.90;100745.63;5094184;28;20494;-74
2023/10/20 11:39:27;;;;;;;1.42;0.40;;;;;;;8.23;67.19;100758.84;5054419;28;20056;-76
2023/10/20 11:41:56;;;;;;;1.15;0.40;;;;;;;8.26;66.40;100744.25;5070442;28;20079;-76
2023/10/20 11:44:24;;;;;;;2.00;1.00;;;;;;;8.12;67.05;100766.53;5071598;28;20032;-74
2023/10/20 11:46:52;;;;;;;3.15;0.65;;;;;;;7.82;66.39;100765.66;5087154;28;20024;-74
2023/10/20 11:49:18;;;;;;;2.28;0.50;;;;;;;8.08;66.84;100781.28;5070944;28;20032;-73
2023/10/20 11:51:44;;;;;;;1.40;0.60;;;;;;;7.95;66.95;100771.22;5086624;28;20398;-74
2023/10/20 11:54:09;;;;;;;1.67;0.75;;;;;;;7.92;67.29;100767.06;5089688;28;20494;-74
2023/10/20 11:56:35;;;;;;;1.25;0.50;;;;;;;7.93;66.96;100768.72;5078223;28;20097;-74
2023/10/20 11:59:01;;;;;;;1.77;0.55;;;;;;;7.92;66.58;100760.88;5074443;28;20391;-74
2023/10/20 12:01:27;;;;;;;1.45;0.70;;;;;;;8.42;66.36;100765.53;5055872;28;20162;-75
2023/10/20 12:03:53;;;;;;;1.55;0.50;;;;;;;8.38;66.64;100752.69;5072238;28;20024;-74
2023/10/20 12:06:18;;;;;;;1.67;0.77;;;;;;;8.23;65.53;100749.97;5071983;28;20028;-74
2023/10/20 12:08:44;;;;;;;3.35;1.35;;;;;;;8.23;63.49;100750.78;5055481;28;20411;-75
2023/10/20 12:11:09;;;;;;;3.95;1.45;;;;;;;8.24;63.64;100743.59;5054836;28;20024;-74
2023/10/20 12:13:37;;;;;;;3.20;0.85;;;;;;;8.32;62.25;100724.75;5073226;28;20103;-74
2023/10/20 12:16:06;;;;;;;4.10;3.08;;;;;;;8.40;62.44;100750.63;5088656;28;20483;-74